createdAt,value
2022-11-06T00:00:32.501Z,90.76
2022-11-06T00:03:00.878Z,91.46
2022-11-06T00:05:47.339Z,91.26
2022-11-06T00:08:16.273Z,90.89
2022-11-06T00:10:44.469Z,91.61
2022-11-06T00:13:13.957Z,90.81
2022-11-06T00:15:41.987Z,91.37
2022-11-06T00:18:10.181Z,91.87
2022-11-06T00:20:38.766Z,90.17
2022-11-06T00:23:06.900Z,91.17
2022-11-06T00:25:35.018Z,91.90
2022-11-06T00:28:03.079Z,90.43
2022-11-06T00:30:32.593Z,92.85
2022-11-06T00:33:00.682Z,92.77
2022-11-06T00:35:28.685Z,92.64
2022-11-06T00:37:57.321Z,92.68
2022-11-06T00:40:25.307Z,90.58
2022-11-06T00:42:57.791Z,90.71
2022-11-06T00:45:25.987Z,90.66
2022-11-06T00:47:55.329Z,91.33
2022-11-06T00:50:26.538Z,92.83
2022-11-06T00:52:55.783Z,92.00
2022-11-06T00:55:23.844Z,91.31
2022-11-06T00:57:52.316Z,90.48
2022-11-06T01:00:20.587Z,90.44
2022-11-06T01:02:48.739Z,90.06
2022-11-06T01:05:18.515Z,88.80
2022-11-06T01:07:46.598Z,87.70
2022-11-06T01:10:15.260Z,87.79
2022-11-06T01:12:43.277Z,88.74
2022-11-06T01:15:11.926Z,88.29
2022-11-06T01:17:39.927Z,89.17
2022-11-06T01:20:09.052Z,90.12
2022-11-06T01:22:38.547Z,89.39
2022-11-06T01:25:07.892Z,89.74
2022-11-06T01:27:35.910Z,89.15
2022-11-06T01:30:04.318Z,90.21
2022-11-06T01:32:32.320Z,88.21
2022-11-06T01:35:00.462Z,88.12
2022-11-06T01:37:28.460Z,87.67
2022-11-06T01:39:57.883Z,87.36
2022-11-06T01:42:25.895Z,87.42
2022-11-06T01:45:35.310Z,86.14
2022-11-06T01:48:04.393Z,85.77
2022-11-06T01:50:32.613Z,86.04
2022-11-06T01:53:02.559Z,87.55
2022-11-06T01:55:36.005Z,88.62
2022-11-06T01:58:06.604Z,89.36
2022-11-06T02:00:35.493Z,89.76
2022-11-06T02:03:04.315Z,90.01
2022-11-06T02:05:32.619Z,90.37
2022-11-06T02:08:02.087Z,89.28
2022-11-06T02:10:31.777Z,86.40
2022-11-06T02:13:16.917Z,84.87
2022-11-06T02:15:51.235Z,83.58
2022-11-06T02:18:42.008Z,82.98
2022-11-06T02:21:36.652Z,82.72
2022-11-06T02:24:31.015Z,83.76
2022-11-06T02:27:10.367Z,84.06
2022-11-06T02:29:46.936Z,84.61
2022-11-06T02:32:20.045Z,84.93
2022-11-06T02:34:50.457Z,88.04
2022-11-06T02:37:25.163Z,89.45
2022-11-06T02:39:55.926Z,88.58
2022-11-06T02:42:29.529Z,88.30
2022-11-06T02:44:59.565Z,89.47
2022-11-06T02:47:31.437Z,89.45
2022-11-06T02:50:05.886Z,89.04
2022-11-06T02:52:38.637Z,90.15
2022-11-06T02:55:12.422Z,89.38
2022-11-06T02:57:47.021Z,89.48
2022-11-06T03:00:17.755Z,89.78
2022-11-06T03:02:51.365Z,88.97
2022-11-06T03:05:25.401Z,86.80
2022-11-06T03:07:58.253Z,87.29
2022-11-06T03:10:31.078Z,87.28
2022-11-06T03:13:07.215Z,88.13
2022-11-06T03:15:41.202Z,89.14
2022-11-06T03:18:16.737Z,88.93
2022-11-06T03:20:55.592Z,88.19
2022-11-06T03:23:29.489Z,87.04
2022-11-06T03:26:04.336Z,87.25
2022-11-06T03:28:37.738Z,85.57
2022-11-06T03:31:12.207Z,84.97
2022-11-06T03:33:44.193Z,84.40
2022-11-06T03:36:18.349Z,84.65
2022-11-06T03:38:49.935Z,84.74
2022-11-06T03:41:23.733Z,84.79
2022-11-06T03:43:56.723Z,86.20
2022-11-06T03:46:27.863Z,87.00
2022-11-06T03:48:59.802Z,88.52
2022-11-06T03:51:33.440Z,88.10
2022-11-06T03:54:06.064Z,88.32
2022-11-06T03:56:41.761Z,88.63
2022-11-06T03:59:15.202Z,86.94
2022-11-06T04:01:47.851Z,85.75
2022-11-06T04:04:23.047Z,84.85
2022-11-06T04:06:54.705Z,85.91
2022-11-06T04:09:44.892Z,86.40
2022-11-06T04:12:33.856Z,87.55
2022-11-06T04:15:03.897Z,87.51
2022-11-06T04:17:32.638Z,87.97
2022-11-06T04:20:03.929Z,87.83
2022-11-06T04:22:43.766Z,86.31
2022-11-06T04:25:50.042Z,86.85
2022-11-06T04:28:31.143Z,85.79
2022-11-06T04:31:11.387Z,85.45
2022-11-06T04:33:46.860Z,83.94
2022-11-06T04:36:23.644Z,83.53
2022-11-06T04:39:02.293Z,82.39
2022-11-06T04:41:37.682Z,82.16
2022-11-06T04:44:10.246Z,82.04
2022-11-06T04:46:46.328Z,81.29
2022-11-06T04:49:15.536Z,81.26
2022-11-06T04:51:47.134Z,81.01
2022-11-06T04:54:16.211Z,81.19
2022-11-06T04:56:46.312Z,80.76
2022-11-06T04:59:17.612Z,80.27
2022-11-06T05:01:47.541Z,80.33
2022-11-06T05:04:16.631Z,81.07
2022-11-06T05:06:44.765Z,81.29
2022-11-06T05:09:13.025Z,81.39
2022-11-06T05:11:41.023Z,82.73
2022-11-06T05:14:09.038Z,83.10
2022-11-06T05:16:37.043Z,80.99
2022-11-06T05:19:06.557Z,80.70
2022-11-06T05:21:51.985Z,80.23
2022-11-06T05:24:19.947Z,81.16
2022-11-06T05:26:48.122Z,80.79
2022-11-06T05:29:16.340Z,82.06
2022-11-06T05:31:44.323Z,81.27
2022-11-06T05:34:13.770Z,82.49
2022-11-06T05:36:41.734Z,82.59
2022-11-06T05:39:10.085Z,81.92
2022-11-06T05:41:38.209Z,81.66
2022-11-06T05:44:06.473Z,82.40
2022-11-06T05:46:50.314Z,82.01
2022-11-06T05:49:20.415Z,81.16
2022-11-06T05:51:48.441Z,81.33
2022-11-06T05:54:16.593Z,80.95
2022-11-06T05:56:44.556Z,81.58
2022-11-06T05:59:13.143Z,82.28
2022-11-06T06:01:41.235Z,83.34
2022-11-06T06:04:09.334Z,85.45
2022-11-06T06:06:39.517Z,83.78
2022-11-06T06:09:07.504Z,82.05
2022-11-06T06:11:35.673Z,81.74
2022-11-06T06:14:03.688Z,82.34
2022-11-06T06:16:32.102Z,83.24
2022-11-06T06:19:00.110Z,83.55
2022-11-06T06:21:28.111Z,81.96
2022-11-06T06:23:57.471Z,81.51
2022-11-06T06:26:25.589Z,81.50
2022-11-06T06:28:53.549Z,80.59
2022-11-06T06:31:21.977Z,80.96
2022-11-06T06:33:50.242Z,80.48
2022-11-06T06:36:18.475Z,80.73
2022-11-06T06:38:46.480Z,79.92
2022-11-06T06:41:15.866Z,79.52
2022-11-06T06:43:43.853Z,80.87
2022-11-06T06:46:11.993Z,83.27
2022-11-06T06:48:40.011Z,82.76
2022-11-06T06:51:08.971Z,82.64
2022-11-06T06:53:37.702Z,81.40
2022-11-06T06:56:06.037Z,82.07
2022-11-06T06:58:35.408Z,83.03
2022-11-06T07:01:05.273Z,81.90
2022-11-06T07:03:33.954Z,81.06
2022-11-06T07:06:01.980Z,80.06
2022-11-06T07:08:30.875Z,80.81
2022-11-06T07:11:02.305Z,79.98
2022-11-06T07:13:35.385Z,82.61
2022-11-06T07:16:06.216Z,81.26
2022-11-06T07:18:34.414Z,79.67
2022-11-06T07:21:02.413Z,79.05
2022-11-06T07:23:30.348Z,78.70
2022-11-06T07:25:58.370Z,78.04
2022-11-06T07:28:26.615Z,77.88
2022-11-06T07:30:58.524Z,77.65
2022-11-06T07:33:28.090Z,78.28
2022-11-06T07:35:56.323Z,80.34
2022-11-06T07:38:24.325Z,79.33
2022-11-06T07:40:52.288Z,80.25
2022-11-06T07:43:20.225Z,80.82
2022-11-06T07:45:48.217Z,81.02
2022-11-06T07:48:16.516Z,79.73
2022-11-06T07:50:46.169Z,80.23
2022-11-06T07:53:14.473Z,81.55
2022-11-06T07:55:49.506Z,81.27
2022-11-06T07:58:17.812Z,82.24
2022-11-06T08:00:48.787Z,84.47
2022-11-06T08:03:17.504Z,82.46
2022-11-06T08:05:47.552Z,81.69
2022-11-06T08:08:15.954Z,81.25
2022-11-06T08:10:44.707Z,79.27
2022-11-06T08:13:13.810Z,78.68
2022-11-06T08:15:42.829Z,77.79
2022-11-06T08:18:12.485Z,77.66
2022-11-06T08:20:41.423Z,77.94
2022-11-06T08:23:14.025Z,78.56
2022-11-06T08:25:42.087Z,77.92
2022-11-06T08:28:11.417Z,77.18
2022-11-06T08:30:39.907Z,76.63
2022-11-06T08:33:09.412Z,76.25
2022-11-06T08:35:37.786Z,76.08
2022-11-06T08:38:05.856Z,75.30
2022-11-06T08:40:37.511Z,74.81
2022-11-06T08:43:07.136Z,74.58
2022-11-06T08:45:38.525Z,74.08
2022-11-06T08:48:07.217Z,73.40
2022-11-06T08:50:37.172Z,73.64
2022-11-06T08:53:06.953Z,73.88
2022-11-06T08:55:38.169Z,73.52
2022-11-06T08:58:07.179Z,73.61
2022-11-06T09:00:36.943Z,73.16
2022-11-06T09:03:07.690Z,73.55
2022-11-06T09:05:35.680Z,73.41
2022-11-06T09:08:03.661Z,73.16
2022-11-06T09:10:31.640Z,73.07
2022-11-06T09:13:01.169Z,72.91
2022-11-06T09:15:29.263Z,72.73
2022-11-06T09:17:57.389Z,73.56
2022-11-06T09:20:27.049Z,73.12
2022-11-06T09:22:55.540Z,72.73
2022-11-06T09:25:23.461Z,72.15
2022-11-06T09:27:58.858Z,71.66
2022-11-06T09:30:30.457Z,72.07
2022-11-06T09:33:00.451Z,71.51
2022-11-06T09:35:29.926Z,71.37
2022-11-06T09:38:03.178Z,72.06
2022-11-06T09:40:35.289Z,72.39
2022-11-06T09:43:16.179Z,72.21
2022-11-06T09:45:53.704Z,72.14
2022-11-06T09:48:28.846Z,71.68
2022-11-06T09:51:01.959Z,70.93
2022-11-06T09:53:35.739Z,71.83
2022-11-06T09:56:06.474Z,71.73
2022-11-06T09:58:38.654Z,71.03
2022-11-06T10:01:22.033Z,71.01
2022-11-06T10:03:57.805Z,71.63
2022-11-06T10:06:27.260Z,71.67
2022-11-06T10:08:58.437Z,71.39
2022-11-06T10:11:49.875Z,71.98
2022-11-06T10:14:29.105Z,71.38
2022-11-06T10:17:05.235Z,71.50
2022-11-06T10:19:41.468Z,72.32
2022-11-06T10:22:16.296Z,71.41
2022-11-06T10:24:47.729Z,71.05
2022-11-06T10:27:18.333Z,73.40
2022-11-06T10:30:04.673Z,72.18
2022-11-06T10:33:08.939Z,72.09
2022-11-06T10:35:39.782Z,72.26
2022-11-06T10:38:12.350Z,72.80
2022-11-06T10:40:41.163Z,72.95
2022-11-06T10:43:23.253Z,72.82
2022-11-06T10:45:56.029Z,72.91
2022-11-06T10:48:31.046Z,72.31
2022-11-06T10:51:19.718Z,72.06
2022-11-06T10:53:57.849Z,71.94
2022-11-06T10:56:51.320Z,73.03
2022-11-06T10:59:19.766Z,73.30
2022-11-06T11:01:47.951Z,72.63
2022-11-06T11:04:17.401Z,72.86
2022-11-06T11:06:45.330Z,72.30
2022-11-06T11:09:29.752Z,72.49
2022-11-06T11:11:58.086Z,72.65
2022-11-06T11:14:27.568Z,72.25
2022-11-06T11:16:56.974Z,72.15
2022-11-06T11:19:34.410Z,71.66
2022-11-06T11:22:05.265Z,71.50
2022-11-06T11:24:33.686Z,71.30
2022-11-06T11:27:04.789Z,71.30
2022-11-06T11:29:35.330Z,71.21
2022-11-06T11:32:07.068Z,71.33
2022-11-06T11:34:49.147Z,71.94
2022-11-06T11:37:27.282Z,71.75
2022-11-06T11:39:55.894Z,71.30
2022-11-06T11:42:29.774Z,70.92
2022-11-06T11:45:16.227Z,70.38
2022-11-06T11:47:47.305Z,70.67
2022-11-06T11:50:30.135Z,71.37
2022-11-06T11:53:07.135Z,71.84
2022-11-06T11:55:41.704Z,72.00
2022-11-06T11:58:21.277Z,72.00
2022-11-06T12:00:56.850Z,71.87
2022-11-06T12:03:28.496Z,71.19
2022-11-06T12:06:06.768Z,71.41
2022-11-06T12:08:35.087Z,72.32
2022-11-06T12:11:05.454Z,72.36
2022-11-06T12:13:33.629Z,71.89
2022-11-06T12:16:04.627Z,71.01
2022-11-06T12:18:36.202Z,70.49
2022-11-06T12:21:08.119Z,70.69
2022-11-06T12:23:50.098Z,72.75
2022-11-06T12:26:28.277Z,71.35
2022-11-06T12:29:04.990Z,70.79
2022-11-06T12:31:38.790Z,71.15
2022-11-06T12:34:17.257Z,70.90
2022-11-06T12:37:11.909Z,70.74
2022-11-06T12:39:44.173Z,71.08
2022-11-06T12:42:14.645Z,70.75
2022-11-06T12:44:42.806Z,71.25
2022-11-06T12:47:26.440Z,70.86
2022-11-06T12:50:13.793Z,70.70
2022-11-06T12:53:06.047Z,70.89
2022-11-06T12:55:38.886Z,70.94
2022-11-06T12:58:27.272Z,71.13
2022-11-06T13:01:04.238Z,71.26
2022-11-06T13:03:57.363Z,71.60
2022-11-06T13:06:34.826Z,71.11
2022-11-06T13:09:12.519Z,71.38
2022-11-06T13:11:47.022Z,72.10
2022-11-06T13:14:22.514Z,72.42
2022-11-06T13:17:01.075Z,71.41
2022-11-06T13:19:35.732Z,70.79
2022-11-06T13:22:18.012Z,71.06
2022-11-06T13:24:57.331Z,71.42
2022-11-06T13:27:32.449Z,71.25
2022-11-06T13:30:05.495Z,71.45
2022-11-06T13:32:37.353Z,71.03
2022-11-06T13:35:06.571Z,71.21
2022-11-06T13:37:40.412Z,70.67
2022-11-06T13:40:21.558Z,70.48
2022-11-06T13:42:54.766Z,70.41
2022-11-06T13:45:24.233Z,70.56
2022-11-06T13:48:06.569Z,70.39
2022-11-06T13:50:44.066Z,69.95
2022-11-06T13:53:22.165Z,69.55
2022-11-06T13:56:04.827Z,70.02
2022-11-06T13:58:54.596Z,69.58
2022-11-06T14:01:41.229Z,69.74
2022-11-06T14:04:49.631Z,69.99
2022-11-06T14:07:21.922Z,69.80
2022-11-06T14:09:50.495Z,69.49
2022-11-06T14:12:23.204Z,69.32
2022-11-06T14:14:56.258Z,69.93
2022-11-06T14:17:25.776Z,69.95
2022-11-06T14:20:07.685Z,69.76
2022-11-06T14:22:37.525Z,69.34
2022-11-06T14:25:38.613Z,69.27
2022-11-06T14:28:08.300Z,69.10
2022-11-06T14:31:11.055Z,68.72
2022-11-06T14:33:59.974Z,68.69
2022-11-06T14:36:36.349Z,68.12
2022-11-06T14:39:10.567Z,68.73
2022-11-06T14:41:58.030Z,68.71
2022-11-06T14:44:35.796Z,68.39
2022-11-06T14:47:08.003Z,68.26
2022-11-06T14:49:41.864Z,68.36
2022-11-06T14:52:13.307Z,68.96
2022-11-06T14:54:50.535Z,68.91
2022-11-06T14:57:34.969Z,69.04
2022-11-06T15:00:06.010Z,69.47
2022-11-06T15:02:37.421Z,69.55
2022-11-06T15:05:09.256Z,69.52
2022-11-06T15:08:10.405Z,69.14
2022-11-06T15:10:55.449Z,68.81
2022-11-06T15:13:33.941Z,68.38
2022-11-06T15:16:22.476Z,67.82
2022-11-06T15:18:52.407Z,67.81
2022-11-06T15:21:25.759Z,68.14
2022-11-06T15:24:05.409Z,67.63
2022-11-06T15:26:37.525Z,67.97
2022-11-06T15:29:18.242Z,68.20
2022-11-06T15:31:50.623Z,68.24
2022-11-06T15:34:24.941Z,68.04
2022-11-06T15:36:59.171Z,68.48
2022-11-06T15:39:39.262Z,68.22
2022-11-06T15:42:10.073Z,68.46
2022-11-06T15:44:41.445Z,68.47
2022-11-06T15:47:22.116Z,69.13
2022-11-06T15:49:50.303Z,69.16
2022-11-06T15:52:19.658Z,69.39
2022-11-06T15:54:49.275Z,69.40
2022-11-06T15:57:20.822Z,69.55
2022-11-06T15:59:49.102Z,69.72
2022-11-06T16:02:22.545Z,70.19
2022-11-06T16:04:51.350Z,70.22
2022-11-06T16:07:20.795Z,70.05
2022-11-06T16:09:51.606Z,69.54
2022-11-06T16:12:20.442Z,69.75
2022-11-06T16:14:48.448Z,70.11
2022-11-06T16:17:23.811Z,69.92
2022-11-06T16:19:53.549Z,70.61
2022-11-06T16:22:29.676Z,71.02
2022-11-06T16:25:01.854Z,71.05
2022-11-06T16:27:35.718Z,71.48
2022-11-06T16:30:04.941Z,71.72
2022-11-06T16:32:40.510Z,71.93
2022-11-06T16:35:33.119Z,72.40
2022-11-06T16:38:41.428Z,71.88
2022-11-06T16:41:36.254Z,72.06
2022-11-06T16:44:29.686Z,72.16
2022-11-06T16:47:15.404Z,72.46
2022-11-06T16:49:52.692Z,72.16
2022-11-06T16:52:26.551Z,72.10
2022-11-06T16:54:57.715Z,72.37
2022-11-06T16:57:28.850Z,72.67
2022-11-06T16:59:59.898Z,72.24
2022-11-06T17:02:32.180Z,72.52
2022-11-06T17:05:16.921Z,72.73
2022-11-06T17:07:46.415Z,72.71
2022-11-06T17:10:36.464Z,72.61
2022-11-06T17:13:25.676Z,72.96
2022-11-06T17:15:57.655Z,72.46
2022-11-06T17:18:27.842Z,72.89
2022-11-06T17:20:59.082Z,73.01
2022-11-06T17:23:29.253Z,72.74
2022-11-06T17:26:00.618Z,72.62
2022-11-06T17:28:29.314Z,73.07
2022-11-06T17:30:57.889Z,73.33
2022-11-06T17:33:25.929Z,73.25
2022-11-06T17:35:54.490Z,73.17
2022-11-06T17:38:27.070Z,73.51
2022-11-06T17:40:55.067Z,73.36
2022-11-06T17:43:24.969Z,73.74
2022-11-06T17:45:54.786Z,73.62
2022-11-06T17:48:23.104Z,73.35
2022-11-06T17:51:08.355Z,73.85
2022-11-06T17:53:37.733Z,73.64
2022-11-06T17:56:06.513Z,73.73
2022-11-06T17:58:35.447Z,74.18
2022-11-06T18:01:08.881Z,74.65
2022-11-06T18:03:43.076Z,75.12
2022-11-06T18:06:11.751Z,75.01
2022-11-06T18:08:41.111Z,75.06
2022-11-06T18:11:10.212Z,75.29
2022-11-06T18:13:39.223Z,75.39
2022-11-06T18:16:16.223Z,75.46
2022-11-06T18:18:44.527Z,75.17
2022-11-06T18:21:12.587Z,75.04
2022-11-06T18:23:41.917Z,75.01
2022-11-06T18:26:09.946Z,74.90
2022-11-06T18:28:38.001Z,75.14
2022-11-06T18:31:06.427Z,74.92
2022-11-06T18:33:34.752Z,75.11
2022-11-06T18:36:03.146Z,75.35
2022-11-06T18:38:31.413Z,75.57
2022-11-06T18:41:00.832Z,75.66
2022-11-06T18:43:28.850Z,75.86
2022-11-06T18:45:56.920Z,76.15
2022-11-06T18:48:25.248Z,76.32
2022-11-06T18:50:53.437Z,76.47
2022-11-06T18:53:22.755Z,77.41
2022-11-06T18:55:50.728Z,76.79
2022-11-06T18:58:20.216Z,78.09
2022-11-06T19:00:48.197Z,78.04
2022-11-06T19:03:16.197Z,77.50
2022-11-06T19:05:48.175Z,77.50
2022-11-06T19:08:16.659Z,77.21
2022-11-06T19:10:44.803Z,77.37
2022-11-06T19:13:12.936Z,77.52
2022-11-06T19:15:42.952Z,78.02
2022-11-06T19:18:11.693Z,77.93
2022-11-06T19:20:41.318Z,78.13
2022-11-06T19:23:09.898Z,77.90
2022-11-06T19:25:41.127Z,78.01
2022-11-06T19:28:09.562Z,78.15
2022-11-06T19:30:37.903Z,78.67
2022-11-06T19:33:07.309Z,78.67
2022-11-06T19:35:35.499Z,79.08
2022-11-06T19:38:03.800Z,78.91
2022-11-06T19:40:32.650Z,79.02
2022-11-06T19:43:03.845Z,78.96
2022-11-06T19:45:31.867Z,78.97
2022-11-06T19:48:01.090Z,79.37
2022-11-06T19:50:58.103Z,79.01
2022-11-06T19:53:20.061Z,79.09
2022-11-06T19:55:48.808Z,79.13
2022-11-06T19:58:18.431Z,79.38
2022-11-06T20:00:48.526Z,79.93
2022-11-06T20:03:17.555Z,79.89
2022-11-06T20:05:47.484Z,80.28
2022-11-06T20:08:15.867Z,80.68
2022-11-06T20:10:43.887Z,81.13
2022-11-06T20:13:12.168Z,81.15
2022-11-06T20:15:40.784Z,81.53
2022-11-06T20:18:09.436Z,82.06
2022-11-06T20:20:37.687Z,81.81
2022-11-06T20:23:07.014Z,81.78
2022-11-06T20:25:34.969Z,82.19
2022-11-06T20:28:03.010Z,82.34
2022-11-06T20:30:31.056Z,81.94
2022-11-06T20:32:59.088Z,82.75
2022-11-06T20:35:27.139Z,82.41
2022-11-06T20:37:55.136Z,82.18
2022-11-06T20:40:24.561Z,81.99
2022-11-06T20:42:52.586Z,81.99
2022-11-06T20:45:20.621Z,82.33
2022-11-06T20:47:48.580Z,82.21
2022-11-06T20:50:17.009Z,81.72
2022-11-06T20:52:45.425Z,82.14
2022-11-06T20:55:13.450Z,82.63
2022-11-06T20:57:42.776Z,82.63
2022-11-06T21:00:12.462Z,82.65
2022-11-06T21:02:40.595Z,83.07
2022-11-06T21:05:09.353Z,83.60
2022-11-06T21:07:37.337Z,83.67
2022-11-06T21:10:06.067Z,83.58
2022-11-06T21:12:34.361Z,83.28
2022-11-06T21:15:03.916Z,83.20
2022-11-06T21:17:31.998Z,83.14
2022-11-06T21:20:00.146Z,83.03
2022-11-06T21:22:28.174Z,83.22
2022-11-06T21:24:56.276Z,83.28
2022-11-06T21:27:24.356Z,83.89
2022-11-06T21:29:52.349Z,83.71
2022-11-06T21:32:21.729Z,84.08
2022-11-06T21:34:49.737Z,83.67
2022-11-06T21:37:17.820Z,83.79
2022-11-06T21:39:45.807Z,84.05
2022-11-06T21:42:13.839Z,84.33
2022-11-06T21:44:42.203Z,84.28
2022-11-06T21:47:10.235Z,84.46
2022-11-06T21:49:39.546Z,84.27
2022-11-06T21:52:29.115Z,83.96
2022-11-06T21:55:15.015Z,84.19
2022-11-06T21:57:42.978Z,84.58
2022-11-06T22:00:14.381Z,84.21
2022-11-06T22:02:43.470Z,84.61
2022-11-06T22:05:12.948Z,83.83
2022-11-06T22:07:40.954Z,83.89
2022-11-06T22:10:09.791Z,84.20
2022-11-06T22:12:37.931Z,84.25
2022-11-06T22:15:06.584Z,84.43
2022-11-06T22:17:34.568Z,84.29
2022-11-06T22:20:03.354Z,83.90
2022-11-06T22:22:32.747Z,83.89
2022-11-06T22:25:00.748Z,84.23
2022-11-06T22:27:28.761Z,84.58
2022-11-06T22:29:56.747Z,84.69
2022-11-06T22:32:25.019Z,84.78
2022-11-06T22:34:53.238Z,84.18
2022-11-06T22:37:21.301Z,84.21
2022-11-06T22:39:50.729Z,83.94
2022-11-06T22:42:18.815Z,83.93
2022-11-06T22:44:46.994Z,84.00
2022-11-06T22:47:15.115Z,84.03
2022-11-06T22:49:43.110Z,83.84
2022-11-06T22:52:11.127Z,83.78
2022-11-06T22:54:39.075Z,84.39
2022-11-06T22:57:08.425Z,84.37
2022-11-06T22:59:36.368Z,84.34
2022-11-06T23:02:04.490Z,84.70
2022-11-06T23:04:32.714Z,84.29
2022-11-06T23:07:00.686Z,84.25
2022-11-06T23:09:28.771Z,84.12
2022-11-06T23:11:56.824Z,84.23
2022-11-06T23:14:26.350Z,84.15
2022-11-06T23:17:00.860Z,84.41
2022-11-06T23:19:31.089Z,84.54
2022-11-06T23:22:13.228Z,84.67
2022-11-06T23:24:41.392Z,84.51
2022-11-06T23:27:10.637Z,84.56
2022-11-06T23:29:40.730Z,84.29
2022-11-06T23:32:09.111Z,84.72
2022-11-06T23:34:37.158Z,84.94
2022-11-06T23:37:05.097Z,84.46
2022-11-06T23:39:33.135Z,84.58
2022-11-06T23:42:01.125Z,84.32
2022-11-06T23:44:46.437Z,84.38
2022-11-06T23:47:15.913Z,84.83
2022-11-06T23:49:43.960Z,84.13
2022-11-06T23:52:11.883Z,84.37
2022-11-06T23:54:39.937Z,84.33
2022-11-06T23:57:08.640Z,84.65
2022-11-06T23:59:36.867Z,84.45
